Time;durP1;ratioP1;P1;durP2;ratioP2;P2;SDS_P1;SDS_P2;PMS_P1;PMS_P2;Temp;Humidity;BMP_temperature;BMP_pressure;BME280_temperature;BME280_humidity;BME280_pressure;Samples;Min_cycle;Max_cycle;Signal;HPM_P1;HPM_P2
2023/07/04 00:00:46;;;;;;;9.93;2.90;;;;;;;;;;7364828;19;20492;-72
2023/07/04 00:03:12;;;;;;;5.70;3.00;;;;;;;;;;7387730;19;20038;-71
2023/07/04 00:05:38;;;;;;;8.75;2.90;;;;;;;;;;7367255;19;20006;-73
2023/07/04 00:08:04;;;;;;;8.30;2.95;;;;;;;;;;7367298;19;20070;-73
2023/07/04 00:10:29;;;;;;;8.20;3.15;;;;;;;;;;7366414;19;20013;-73
2023/07/04 00:12:54;;;;;;;6.05;3.10;;;;;;;;;;7367687;19;19998;-73
2023/07/04 00:15:20;;;;;;;5.75;3.28;;;;;;;;;;7389439;19;19995;-72
2023/07/04 00:17:45;;;;;;;6.30;3.00;;;;;;;;;;7365206;19;20465;-73
2023/07/04 00:20:11;;;;;;;5.60;2.83;;;;;;;;;;7365442;19;20661;-72
2023/07/04 00:22:36;;;;;;;5.57;2.70;;;;;;;;;;7366620;19;20002;-72
2023/07/04 00:25:04;;;;;;;7.05;2.90;;;;;;;;;;7366344;19;20010;-72
2023/07/04 00:27:33;;;;;;;5.60;3.03;;;;;;;;;;7388103;19;20002;-72
2023/07/04 00:29:59;;;;;;;6.82;3.30;;;;;;;;;;7365164;19;20013;-72
2023/07/04 00:32:25;;;;;;;8.65;3.13;;;;;;;;;;7366114;19;20010;-73
2023/07/04 00:34:50;;;;;;;7.35;3.33;;;;;;;;;;7366112;19;20337;-73
2023/07/04 00:37:21;;;;;;;7.43;3.15;;;;;;;;;;7364186;19;20134;-73
2023/07/04 00:39:46;;;;;;;6.78;2.95;;;;;;;;;;7362325;19;20626;-73
2023/07/04 00:42:12;;;;;;;7.35;3.58;;;;;;;;;;7386550;19;20007;-73
2023/07/04 00:44:44;;;;;;;10.05;3.63;;;;;;;;;;7362748;19;20010;-72
2023/07/04 00:47:15;;;;;;;8.30;3.55;;;;;;;;;;7363249;19;20006;-72
2023/07/04 00:49:43;;;;;;;8.70;3.45;;;;;;;;;;7362636;19;20024;-72
2023/07/04 00:52:24;;;;;;;8.77;3.67;;;;;;;;;;7367072;19;20014;-72
2023/07/04 00:54:53;;;;;;;11.75;3.55;;;;;;;;;;7363846;19;20014;-73
2023/07/04 00:57:25;;;;;;;10.98;3.47;;;;;;;;;;7384591;19;20010;-73
2023/07/04 00:59:57;;;;;;;9.10;3.88;;;;;;;;;;7362712;19;20011;-72
2023/07/04 01:02:27;;;;;;;7.32;3.33;;;;;;;;;;7364332;19;20039;-73
2023/07/04 01:04:53;;;;;;;7.70;3.80;;;;;;;;;;7365290;19;20026;-73
2023/07/04 01:07:45;;;;;;;11.38;3.55;;;;;;;;;;7363175;19;20484;-73
2023/07/04 01:10:20;;;;;;;7.18;3.50;;;;;;;;;;7363841;19;20027;-73
2023/07/04 01:12:46;;;;;;;7.28;3.58;;;;;;;;;;7363610;19;20027;-73
2023/07/04 01:15:12;;;;;;;9.75;3.97;;;;;;;;;;7385761;19;20018;-72
2023/07/04 01:17:41;;;;;;;8.55;3.72;;;;;;;;;;7364266;19;20010;-72
2023/07/04 01:20:08;;;;;;;8.27;3.70;;;;;;;;;;7363522;19;20018;-72
2023/07/04 01:22:57;;;;;;;8.50;3.33;;;;;;;;;;7363071;19;20074;-72
2023/07/04 01:25:38;;;;;;;9.52;3.65;;;;;;;;;;7364784;19;20014;-73
2023/07/04 01:28:05;;;;;;;8.25;3.60;;;;;;;;;;7364469;19;20007;-73
2023/07/04 01:30:33;;;;;;;7.30;3.33;;;;;;;;;;7384935;19;20119;-72
2023/07/04 01:32:59;;;;;;;10.25;3.67;;;;;;;;;;7363935;19;20006;-72
2023/07/04 01:35:26;;;;;;;8.98;3.97;;;;;;;;;;7364836;19;20014;-73
2023/07/04 01:37:52;;;;;;;9.60;3.95;;;;;;;;;;7360068;19;20472;-73
2023/07/04 01:40:18;;;;;;;9.00;3.38;;;;;;;;;;7361729;19;20002;-73
2023/07/04 01:42:44;;;;;;;8.05;3.60;;;;;;;;;;7363136;19;20022;-73
2023/07/04 01:45:10;;;;;;;7.35;3.47;;;;;;;;;;7385341;19;20571;-72
2023/07/04 01:47:36;;;;;;;9.45;3.65;;;;;;;;;;7361709;19;20018;-73
2023/07/04 01:50:03;;;;;;;9.65;3.72;;;;;;;;;;7364397;19;20014;-73
2023/07/04 01:52:30;;;;;;;11.32;3.78;;;;;;;;;;7364715;19;20020;-73
2023/07/04 01:54:56;;;;;;;9.65;3.88;;;;;;;;;;7363149;19;20018;-73
2023/07/04 01:57:22;;;;;;;8.82;3.70;;;;;;;;;;7385129;19;20029;-73
2023/07/04 01:59:47;;;;;;;10.73;3.65;;;;;;;;;;7362883;19;20036;-73
2023/07/04 02:02:13;;;;;;;8.38;3.40;;;;;;;;;;7363501;19;20398;-73
2023/07/04 02:04:38;;;;;;;9.95;4.07;;;;;;;;;;7363873;19;20015;-72
2023/07/04 02:07:04;;;;;;;8.27;3.65;;;;;;;;;;7364003;19;20019;-72
2023/07/04 02:09:29;;;;;;;8.40;3.33;;;;;;;;;;7384058;19;20027;-72
2023/07/04 02:11:55;;;;;;;9.80;4.00;;;;;;;;;;7361633;19;20035;-72
2023/07/04 02:14:20;;;;;;;8.80;3.70;;;;;;;;;;7361175;19;20010;-72
2023/07/04 02:16:45;;;;;;;6.78;3.25;;;;;;;;;;7363135;19;20023;-73
2023/07/04 02:19:11;;;;;;;7.88;3.58;;;;;;;;;;7361419;19;20103;-72
2023/07/04 02:21:36;;;;;;;7.85;3.38;;;;;;;;;;7382325;19;20046;-72
2023/07/04 02:24:02;;;;;;;7.75;3.78;;;;;;;;;;7361696;19;20014;-72
2023/07/04 02:26:27;;;;;;;8.80;4.18;;;;;;;;;;7361856;19;20011;-72
2023/07/04 02:28:53;;;;;;;7.72;3.50;;;;;;;;;;7362427;19;20020;-72
2023/07/04 02:31:18;;;;;;;7.13;3.33;;;;;;;;;;7360680;19;20018;-72
2023/07/04 02:33:44;;;;;;;9.63;3.85;;;;;;;;;;7363123;19;19999;-72
2023/07/04 02:36:11;;;;;;;8.65;3.60;;;;;;;;;;7382045;19;20010;-72
2023/07/04 02:38:39;;;;;;;9.05;3.28;;;;;;;;;;7358629;19;20014;-71
2023/07/04 02:41:04;;;;;;;11.15;3.60;;;;;;;;;;7360957;19;20010;-74
2023/07/04 02:43:30;;;;;;;7.63;3.95;;;;;;;;;;7369765;19;20050;-72
2023/07/04 02:45:55;;;;;;;12.80;3.95;;;;;;;;;;7369141;19;20026;-72
2023/07/04 02:48:21;;;;;;;11.60;4.00;;;;;;;;;;7388200;19;20465;-72
2023/07/04 02:50:46;;;;;;;10.07;4.40;;;;;;;;;;7365507;19;20335;-72
2023/07/04 02:53:11;;;;;;;8.07;3.83;;;;;;;;;;7368417;19;20017;-72
2023/07/04 02:55:36;;;;;;;9.68;4.05;;;;;;;;;;7366112;19;20039;-72
2023/07/04 02:58:02;;;;;;;8.93;3.85;;;;;;;;;;7365149;19;20018;-72
2023/07/04 03:00:27;;;;;;;10.45;3.70;;;;;;;;;;7388901;19;20003;-72
2023/07/04 03:02:53;;;;;;;9.57;4.07;;;;;;;;;;7367391;19;20014;-72
2023/07/04 03:05:18;;;;;;;8.43;3.42;;;;;;;;;;7365536;19;20010;-72
2023/07/04 03:07:44;;;;;;;8.90;4.00;;;;;;;;;;7368871;19;20015;-72
2023/07/04 03:10:09;;;;;;;8.60;3.90;;;;;;;;;;7371121;19;20504;-72
2023/07/04 03:12:35;;;;;;;10.95;4.20;;;;;;;;;;7392591;19;20386;-73
2023/07/04 03:15:00;;;;;;;10.25;3.67;;;;;;;;;;7367010;19;20018;-72
2023/07/04 03:17:25;;;;;;;12.80;4.50;;;;;;;;;;7368423;19;20695;-72
2023/07/04 03:19:51;;;;;;;9.05;3.70;;;;;;;;;;7370235;19;20011;-72
2023/07/04 03:22:18;;;;;;;11.07;3.63;;;;;;;;;;7369585;19;20014;-72
2023/07/04 03:24:43;;;;;;;8.70;3.95;;;;;;;;;;7369367;19;20011;-73
2023/07/04 03:27:09;;;;;;;9.40;3.63;;;;;;;;;;7389259;19;20508;-72
2023/07/04 03:29:34;;;;;;;8.73;4.18;;;;;;;;;;7367448;19;20002;-72
2023/07/04 03:32:00;;;;;;;11.27;4.20;;;;;;;;;;7367133;19;20261;-73
2023/07/04 03:34:25;;;;;;;10.20;4.13;;;;;;;;;;7366302;19;20089;-73
2023/07/04 03:36:50;;;;;;;9.82;4.13;;;;;;;;;;7366279;19;20031;-73
2023/07/04 03:39:16;;;;;;;11.23;3.75;;;;;;;;;;7383506;19;20007;-73
2023/07/04 03:41:41;;;;;;;11.77;4.13;;;;;;;;;;7367000;19;20379;-73
2023/07/04 03:44:07;;;;;;;9.50;4.03;;;;;;;;;;7370161;19;20017;-73
2023/07/04 03:46:32;;;;;;;11.90;3.97;;;;;;;;;;7367941;19;20010;-73
2023/07/04 03:48:57;;;;;;;11.07;4.03;;;;;;;;;;7364717;19;20010;-73
2023/07/04 03:51:23;;;;;;;8.70;4.03;;;;;;;;;;7388313;19;20014;-73
2023/07/04 03:53:48;;;;;;;9.93;3.75;;;;;;;;;;7363635;19;20018;-71
2023/07/04 03:56:15;;;;;;;11.07;3.83;;;;;;;;;;7368425;19;20021;-73
2023/07/04 03:58:40;;;;;;;10.38;4.18;;;;;;;;;;7367060;19;20006;-73
2023/07/04 04:01:06;;;;;;;11.38;3.88;;;;;;;;;;7363776;19;20027;-72
2023/07/04 04:03:36;;;;;;;8.93;4.07;;;;;;;;;;7390735;19;20011;-72
2023/07/04 04:06:02;;;;;;;12.77;4.30;;;;;;;;;;7365649;19;20042;-71
2023/07/04 04:08:28;;;;;;;8.90;4.10;;;;;;;;;;7367840;19;20058;-73
2023/07/04 04:10:53;;;;;;;10.75;3.63;;;;;;;;;;7367050;19;20007;-73
2023/07/04 04:13:18;;;;;;;10.55;4.05;;;;;;;;;;7369382;19;19994;-73
2023/07/04 04:15:44;;;;;;;9.40;3.58;;;;;;;;;;7369954;19;20002;-72
2023/07/04 04:18:09;;;;;;;10.50;3.90;;;;;;;;;;7388957;19;20017;-72
2023/07/04 04:20:34;;;;;;;8.85;4.35;;;;;;;;;;7367948;19;20431;-71
2023/07/04 04:23:00;;;;;;;10.82;4.07;;;;;;;;;;7369591;19;20002;-72
2023/07/04 04:25:25;;;;;;;9.35;3.90;;;;;;;;;;7370291;19;20019;-72
2023/07/04 04:27:51;;;;;;;10.00;3.58;;;;;;;;;;7365499;19;20015;-74
2023/07/04 04:30:17;;;;;;;12.60;4.35;;;;;;;;;;7386635;19;20014;-73
2023/07/04 04:32:44;;;;;;;8.80;3.88;;;;;;;;;;7367245;19;20022;-73
2023/07/04 04:35:11;;;;;;;14.73;3.95;;;;;;;;;;7368184;19;20078;-74
2023/07/04 04:37:37;;;;;;;9.07;3.75;;;;;;;;;;7367491;19;20011;-74
2023/07/04 04:40:04;;;;;;;8.48;3.67;;;;;;;;;;7367761;19;20022;-74
2023/07/04 04:42:33;;;;;;;8.75;3.88;;;;;;;;;;7390322;19;20061;-58
2023/07/04 04:44:58;;;;;;;13.20;4.38;;;;;;;;;;7367688;19;20012;-52
2023/07/04 04:47:24;;;;;;;7.90;3.70;;;;;;;;;;7367202;19;20077;-53
2023/07/04 04:49:52;;;;;;;10.23;3.92;;;;;;;;;;7366644;19;20534;-53
2023/07/04 04:52:19;;;;;;;9.30;4.07;;;;;;;;;;7368093;19;20002;-57
2023/07/04 04:54:45;;;;;;;9.07;3.42;;;;;;;;;;7365614;19;20011;-55
2023/07/04 04:57:10;;;;;;;6.65;3.45;;;;;;;;;;7388218;19;20002;-57
2023/07/04 04:59:35;;;;;;;11.90;4.30;;;;;;;;;;7365042;19;20030;-55
2023/07/04 05:02:01;;;;;;;7.97;3.95;;;;;;;;;;7369544;19;20038;-58
2023/07/04 05:04:26;;;;;;;12.88;4.18;;;;;;;;;;7369167;19;20006;-54
2023/07/04 05:06:51;;;;;;;10.25;3.80;;;;;;;;;;7368828;19;20011;-54
2023/07/04 05:09:17;;;;;;;11.40;3.80;;;;;;;;;;7387516;19;20028;-54
2023/07/04 05:11:42;;;;;;;11.50;3.72;;;;;;;;;;7372596;19;20018;-54
2023/07/04 05:14:08;;;;;;;10.85;4.05;;;;;;;;;;7367484;19;20017;-72
2023/07/04 05:16:34;;;;;;;10.20;3.78;;;;;;;;;;7367515;19;20025;-74
2023/07/04 05:18:59;;;;;;;8.43;3.85;;;;;;;;;;7365470;19;20031;-74
2023/07/04 05:21:25;;;;;;;12.80;4.38;;;;;;;;;;7386919;19;20010;-74
2023/07/04 05:23:52;;;;;;;9.70;3.53;;;;;;;;;;7366756;19;20013;-74
2023/07/04 05:26:23;;;;;;;10.52;4.10;;;;;;;;;;7366757;19;20763;-74
2023/07/04 05:28:54;;;;;;;10.73;3.85;;;;;;;;;;7367750;19;20010;-74
2023/07/04 05:31:23;;;;;;;9.90;4.13;;;;;;;;;;7369964;19;20006;-73
2023/07/04 05:33:48;;;;;;;11.52;4.05;;;;;;;;;;7367560;19;20010;-74
2023/07/04 05:36:20;;;;;;;10.80;3.78;;;;;;;;;;7388487;19;20007;-74
2023/07/04 05:38:50;;;;;;;9.77;3.80;;;;;;;;;;7363792;19;20032;-75
2023/07/04 05:41:17;;;;;;;8.15;4.07;;;;;;;;;;7365575;19;20095;-73
2023/07/04 05:43:44;;;;;;;11.15;3.90;;;;;;;;;;7368081;19;20489;-74
2023/07/04 05:46:11;;;;;;;10.77;3.90;;;;;;;;;;7365853;19;20534;-74
2023/07/04 05:48:37;;;;;;;10.15;3.45;;;;;;;;;;7387433;19;20013;-73
2023/07/04 05:51:05;;;;;;;7.50;3.20;;;;;;;;;;7364933;19;20039;-73
2023/07/04 05:53:35;;;;;;;11.27;3.70;;;;;;;;;;7365156;19;20085;-73
2023/07/04 05:56:15;;;;;;;9.65;3.70;;;;;;;;;;7366402;19;20006;-74
2023/07/04 05:58:43;;;;;;;7.15;2.83;;;;;;;;;;7365344;19;20014;-74
2023/07/04 06:01:10;;;;;;;9.35;3.75;;;;;;;;;;7362941;19;20006;-74
2023/07/04 06:03:36;;;;;;;8.85;2.85;;;;;;;;;;7380726;19;20469;-74
2023/07/04 06:06:03;;;;;;;7.43;3.22;;;;;;;;;;7364537;19;20044;-73
2023/07/04 06:08:29;;;;;;;11.27;3.10;;;;;;;;;;7363986;19;20050;-71
2023/07/04 06:11:03;;;;;;;8.13;3.25;;;;;;;;;;7362229;19;20441;-72
2023/07/04 06:13:28;;;;;;;8.82;3.05;;;;;;;;;;7364832;19;20006;-72
2023/07/04 06:15:54;;;;;;;7.50;3.20;;;;;;;;;;7365097;19;20011;-73
2023/07/04 06:18:19;;;;;;;9.98;3.42;;;;;;;;;;7390196;19;20089;-72
2023/07/04 06:20:45;;;;;;;13.38;3.35;;;;;;;;;;7370299;19;20019;-72
2023/07/04 06:23:10;;;;;;;11.45;3.70;;;;;;;;;;7369785;19;20032;-72
2023/07/04 06:25:36;;;;;;;10.55;3.22;;;;;;;;;;7371884;19;20027;-72
2023/07/04 06:28:01;;;;;;;9.35;3.60;;;;;;;;;;7371857;19;20145;-74
2023/07/04 06:30:29;;;;;;;8.80;2.95;;;;;;;;;;7393582;19;19999;-73
2023/07/04 06:32:56;;;;;;;9.32;3.40;;;;;;;;;;7371819;19;20010;-72
2023/07/04 06:35:21;;;;;;;7.82;2.97;;;;;;;;;;7369924;19;20465;-73
2023/07/04 06:37:46;;;;;;;10.18;3.22;;;;;;;;;;7370934;19;20003;-72
2023/07/04 06:40:12;;;;;;;11.13;2.80;;;;;;;;;;7369884;19;20014;-72
2023/07/04 06:42:37;;;;;;;11.73;3.38;;;;;;;;;;7394853;19;20010;-72
2023/07/04 06:45:03;;;;;;;9.68;3.38;;;;;;;;;;7371329;19;20900;-74
2023/07/04 06:47:28;;;;;;;9.68;3.22;;;;;;;;;;7372158;19;20013;-72
2023/07/04 06:49:53;;;;;;;8.80;3.05;;;;;;;;;;7368659;19;20018;-74
2023/07/04 06:52:19;;;;;;;7.40;2.95;;;;;;;;;;7372584;19;20014;-72
2023/07/04 06:54:47;;;;;;;8.73;3.15;;;;;;;;;;7369040;19;20022;-76
2023/07/04 06:57:13;;;;;;;7.13;2.72;;;;;;;;;;7391645;19;20062;-75
2023/07/04 06:59:38;;;;;;;8.13;2.70;;;;;;;;;;7367364;19;20045;-76
2023/07/04 07:02:04;;;;;;;8.50;3.17;;;;;;;;;;7371230;19;20018;-72
2023/07/04 07:04:29;;;;;;;6.78;2.70;;;;;;;;;;7377234;19;20091;-73
2023/07/04 07:06:55;;;;;;;9.60;3.03;;;;;;;;;;7371755;19;20421;-77
2023/07/04 07:09:20;;;;;;;8.65;2.97;;;;;;;;;;7392389;19;20010;-76
2023/07/04 07:11:45;;;;;;;10.40;3.00;;;;;;;;;;7369573;19;20496;-74
2023/07/04 07:14:11;;;;;;;9.88;3.03;;;;;;;;;;7369808;19;20007;-74
2023/07/04 07:16:36;;;;;;;9.90;3.03;;;;;;;;;;7369975;19;20009;-74
2023/07/04 07:19:01;;;;;;;8.00;3.00;;;;;;;;;;7365725;19;20014;-74
2023/07/04 07:21:27;;;;;;;8.88;3.33;;;;;;;;;;7392374;19;20002;-73
2023/07/04 07:23:53;;;;;;;7.60;3.25;;;;;;;;;;7371404;19;20047;-76
2023/07/04 07:26:21;;;;;;;6.97;2.55;;;;;;;;;;7371620;19;20021;-73
2023/07/04 07:28:46;;;;;;;11.75;2.70;;;;;;;;;;7367962;19;20111;-71
2023/07/04 07:31:16;;;;;;;6.28;2.85;;;;;;;;;;7366946;19;20038;-71
2023/07/04 07:33:45;;;;;;;7.30;2.95;;;;;;;;;;7374186;19;20006;-72
2023/07/04 07:36:18;;;;;;;7.57;2.88;;;;;;;;;;7390832;19;20010;-75
2023/07/04 07:38:44;;;;;;;8.98;3.10;;;;;;;;;;7368483;19;20103;-76
2023/07/04 07:41:09;;;;;;;6.88;2.55;;;;;;;;;;7371896;19;20007;-76
2023/07/04 07:43:37;;;;;;;6.13;2.50;;;;;;;;;;7371723;19;20022;-72
2023/07/04 07:46:06;;;;;;;7.10;2.65;;;;;;;;;;7367666;19;20015;-73
2023/07/04 07:48:31;;;;;;;7.32;2.70;;;;;;;;;;7388666;19;20019;-72
2023/07/04 07:50:56;;;;;;;8.45;3.20;;;;;;;;;;7369120;19;20521;-71
2023/07/04 07:53:22;;;;;;;9.95;3.05;;;;;;;;;;7370846;19;20035;-72
2023/07/04 07:55:47;;;;;;;8.18;2.90;;;;;;;;;;7367392;19;20078;-72
2023/07/04 07:58:12;;;;;;;15.30;3.42;;;;;;;;;;7367135;19;20015;-72
2023/07/04 08:00:38;;;;;;;7.05;2.70;;;;;;;;;;7391286;19;20006;-73
2023/07/04 08:03:03;;;;;;;6.80;2.70;;;;;;;;;;7370363;19;20039;-75
2023/07/04 08:05:29;;;;;;;7.65;2.80;;;;;;;;;;7368855;19;20015;-73
2023/07/04 08:07:54;;;;;;;6.18;2.83;;;;;;;;;;7366941;19;20006;-74
2023/07/04 08:10:20;;;;;;;5.20;2.85;;;;;;;;;;7369711;19;20441;-73
2023/07/04 08:12:45;;;;;;;5.85;2.70;;;;;;;;;;7369166;19;20010;-75
2023/07/04 08:15:11;;;;;;;8.77;2.90;;;;;;;;;;7389355;19;20423;-73
2023/07/04 08:17:37;;;;;;;8.95;2.90;;;;;;;;;;7365691;19;20535;-74
2023/07/04 08:20:04;;;;;;;7.45;3.42;;;;;;;;;;7368645;19;20509;-71
2023/07/04 08:22:29;;;;;;;6.78;2.97;;;;;;;;;;7368092;19;20017;-73
2023/07/04 08:24:54;;;;;;;9.20;3.10;;;;;;;;;;7366833;19;20006;-75
2023/07/04 08:27:24;;;;;;;8.45;3.03;;;;;;;;;;7386117;19;20015;-71
2023/07/04 08:29:49;;;;;;;5.63;2.40;;;;;;;;;;7367716;19;20432;-72
2023/07/04 08:32:15;;;;;;;6.13;2.42;;;;;;;;;;7367684;19;20010;-72
2023/07/04 08:34:40;;;;;;;7.55;3.17;;;;;;;;;;7368056;19;20010;-72
2023/07/04 08:37:06;;;;;;;5.80;2.85;;;;;;;;;;7366192;19;20010;-72
2023/07/04 08:39:31;;;;;;;9.05;2.65;;;;;;;;;;7388661;19;20003;-72
2023/07/04 08:41:59;;;;;;;9.10;3.15;;;;;;;;;;7366727;19;20018;-71
2023/07/04 08:44:35;;;;;;;7.90;3.17;;;;;;;;;;7367802;19;20006;-73
2023/07/04 08:47:01;;;;;;;7.28;2.70;;;;;;;;;;7365052;19;20010;-73
2023/07/04 08:49:35;;;;;;;8.32;3.20;;;;;;;;;;7366588;19;20006;-75
2023/07/04 08:52:06;;;;;;;6.20;2.72;;;;;;;;;;7368954;19;20004;-71
2023/07/04 08:54:33;;;;;;;6.07;2.58;;;;;;;;;;7389815;19;20484;-74
2023/07/04 08:57:05;;;;;;;6.18;2.70;;;;;;;;;;7366637;19;20023;-73
2023/07/04 08:59:41;;;;;;;6.35;2.90;;;;;;;;;;7369095;19;20501;-74
2023/07/04 09:02:26;;;;;;;4.88;2.50;;;;;;;;;;7369811;19;20130;-74
2023/07/04 09:05:14;;;;;;;6.03;2.72;;;;;;;;;;7368855;19;20002;-74
2023/07/04 09:07:59;;;;;;;4.78;2.55;;;;;;;;;;7367166;19;20590;-72
2023/07/04 09:10:34;;;;;;;9.15;3.10;;;;;;;;;;7366438;19;20015;-73
2023/07/04 09:13:02;;;;;;;7.22;2.97;;;;;;;;;;7367412;19;20030;-71
2023/07/04 09:15:34;;;;;;;7.13;3.15;;;;;;;;;;7388366;19;20014;-71
2023/07/04 09:18:14;;;;;;;9.35;3.15;;;;;;;;;;7367296;19;20018;-72
2023/07/04 09:21:03;;;;;;;5.75;3.15;;;;;;;;;;7367935;19;19998;-76
2023/07/04 09:23:29;;;;;;;6.55;3.00;;;;;;;;;;7370813;19;20022;-77
2023/07/04 09:25:56;;;;;;;8.73;3.47;;;;;;;;;;7366883;19;20783;-74
2023/07/04 09:28:22;;;;;;;7.97;3.28;;;;;;;;;;7364037;19;20041;-73
2023/07/04 09:30:47;;;;;;;6.40;3.10;;;;;;;;;;7366308;19;20002;-72
2023/07/04 09:33:14;;;;;;;6.75;2.80;;;;;;;;;;7388719;19;20449;-73
2023/07/04 09:35:41;;;;;;;7.32;3.13;;;;;;;;;;7365916;19;20065;-74
2023/07/04 09:38:07;;;;;;;7.35;3.13;;;;;;;;;;7361536;19;20077;-74
2023/07/04 09:40:54;;;;;;;6.55;3.15;;;;;;;;;;7366619;19;20031;-72
2023/07/04 09:43:29;;;;;;;6.75;3.00;;;;;;;;;;7365474;19;20014;-75
2023/07/04 09:46:26;;;;;;;10.38;3.60;;;;;;;;;;7365480;19;20010;-76
2023/07/04 09:48:52;;;;;;;7.72;3.28;;;;;;;;;;7366239;19;20018;-72
2023/07/04 09:51:18;;;;;;;7.63;3.10;;;;;;;;;;7391787;19;20006;-73
2023/07/04 09:53:43;;;;;;;9.00;3.23;;;;;;;;;;7371794;19;20022;-75
2023/07/04 09:56:09;;;;;;;7.45;3.35;;;;;;;;;;7372613;19;20252;-74
2023/07/04 09:58:36;;;;;;;6.35;3.20;;;;;;;;;;7372526;19;20014;-74
2023/07/04 10:01:16;;;;;;;7.72;3.92;;;;;;;;;;7372856;19;20068;-75
2023/07/04 10:03:44;;;;;;;;;;;;;;;;;;7373595;19;20027;-72
2023/07/04 10:06:10;;;;;;;;;;;;;;;;;;7393799;19;20564;-74
2023/07/04 10:08:49;;;;;;;;;;;;;;;;;;7370380;19;19974;-72
2023/07/04 10:11:22;;;;;;;;;;;;;;;;;;7372449;19;19914;-73
2023/07/04 10:13:57;;;;;;;;;;;;;;;;;;7372837;19;19918;-73
2023/07/04 10:16:23;;;;;;;;;;;;;;;;;;7373494;19;20356;-72
2023/07/04 10:18:48;;;;;;;;;;;;;;;;;;7369295;19;19919;-73
2023/07/04 10:21:14;;;;;;;;;;;;;;;;;;7392558;19;19949;-72
2023/07/04 10:23:39;;;;;;;;;;;;;;;;;;7371851;19;19994;-72
2023/07/04 10:26:05;;;;;;;;;;;;;;;;;;7373984;19;19926;-70
2023/07/04 10:28:30;;;;;;;;;;;;;;;;;;7372195;19;19935;-72
2023/07/04 10:31:01;;;;;;;;;;;;;;;;;;7372145;19;19927;-71
2023/07/04 10:33:36;;;;;;;;;;;;;;;;;;7396665;19;19929;-67
2023/07/04 10:36:01;;;;;;;;;;;;;;;;;;7372596;19;20273;-61
2023/07/04 10:38:32;;;;;;;;;;;;;;;;;;7369173;19;19918;-62
2023/07/04 10:40:59;;;;;;;;;;;;;;;;;;7370900;19;19982;-61
2023/07/04 10:43:24;;;;;;;;;;;;;;;;;;7372880;19;20666;-63
2023/07/04 10:45:51;;;;;;;;;;;;;;;;;;7369147;19;19974;-62
2023/07/04 10:48:17;;;;;;;;;;;;;;;;;;7390178;19;20322;-53
2023/07/04 10:50:48;;;;;;;;;;;;;;;;;;7370953;19;19919;-57
2023/07/04 10:53:14;;;;;;;;;;;;;;;;;;7372415;19;19930;-53
2023/07/04 10:55:42;;;;;;;;;;;;;;;;;;7369527;19;20357;-55
2023/07/04 10:58:14;;;;;;;;;;;;;;;;;;7369851;19;19927;-57
2023/07/04 11:00:42;;;;;;;;;;;;;;;;;;7395231;19;19974;-58
2023/07/04 11:03:15;;;;;;;;;;;;;;;;;;7371327;19;19923;-57
2023/07/04 11:05:42;;;;;;;;;;;;;;;;;;7371446;19;19915;-57
2023/07/04 11:08:07;;;;;;;;;;;;;;;;;;7371130;19;19970;-57
2023/07/04 11:10:37;;;;;;;;;;;;;;;;;;7367790;19;19939;-60
2023/07/04 11:13:03;;;;;;;;;;;;;;;;;;7369604;19;20174;-60
2023/07/04 11:15:30;;;;;;;;;;;;;;;;;;7394001;19;19918;-69
2023/07/04 11:17:55;;;;;;;;;;;;;;;;;;7370444;19;19982;-61
2023/07/04 11:20:22;;;;;;;;;;;;;;;;;;7369829;19;19940;-59
2023/07/04 11:22:50;;;;;;;;;;;;;;;;;;7371444;19;19914;-62
2023/07/04 11:25:24;;;;;;;;;;;;;;;;;;7372899;19;19951;-61
2023/07/04 11:28:08;;;;;;;;;;;;;;;;;;7370100;19;19922;-61
2023/07/04 11:30:34;;;;;;;;;;;;;;;;;;7388435;19;19922;-64
2023/07/04 11:32:59;;;;;;;;;;;;;;;;;;7371139;19;20473;-64
2023/07/04 11:35:31;;;;;;;;;;;;;;;;;;7371295;19;19947;-65
2023/07/04 11:38:03;;;;;;;;;;;;;;;;;;7371809;19;19983;-64
2023/07/04 11:40:50;;;;;;;;;;;;;;;;;;7373126;19;19910;-64
2023/07/04 11:43:21;;;;;;;;;;;;;;;;;;7372631;19;19932;-63
2023/07/04 11:45:46;;;;;;;;;;;;;;;;;;7371200;19;19918;-62
2023/07/04 11:48:15;;;;;;;;;;;;;;;;;;7390482;19;20294;-63
2023/07/04 11:50:44;;;;;;;;;;;;;;;;;;7369671;19;19970;-64
2023/07/04 11:53:17;;;;;;;;;;;;;;;;;;7369536;19;19915;-63
2023/07/04 11:55:42;;;;;;;;;;;;;;;;;;7367734;19;19919;-65
2023/07/04 11:58:07;;;;;;;;;;;;;;;;;;7364218;19;19915;-58
2023/07/04 12:00:37;;;;;;;;;;;;;;;;;;7390333;19;20007;-67
2023/07/04 12:03:17;;;;;;;;;;;;;;;;;;7369039;19;19995;-58
2023/07/04 12:05:48;;;;;;;;;;;;;;;;;;7368702;19;20330;-62
2023/07/04 12:08:17;;;;;;;;;;;;;;;;;;7368593;19;20006;-64
2023/07/04 12:10:42;;;;;;;;;;;;;;;;;;7366485;19;19950;-64
2023/07/04 12:13:08;;;;;;;;;;;;;;;;;;7367297;19;20289;-60
2023/07/04 12:15:34;;;;;;;;;;;;;;;;;;7387458;19;19922;-58
2023/07/04 12:18:01;;;;;;;;;;;;;;;;;;7366413;19;19923;-63
2023/07/04 12:20:27;;;;;;;;;;;;;;;;;;7366801;19;19955;-64
2023/07/04 12:22:54;;;;;;;;;;;;;;;;;;7368019;19;19914;-60
2023/07/04 12:25:22;;;;;;;;;;;;;;;;;;7367092;19;19914;-63
2023/07/04 12:27:48;;;;;;;;;;;;;;;;;;7367486;19;19926;-60
2023/07/04 12:30:13;;;;;;;;;;;;;;;;;;7388545;19;19940;-60
2023/07/04 12:32:39;;;;;;;;;;;;;;;;;;7369415;19;20017;-60
2023/07/04 12:35:17;;;;;;;;;;;;;;;;;;7400727;19;19986;-59
2023/07/04 12:37:45;;;;;;;;;;;;;;;;;;7403607;19;19919;-61
2023/07/04 12:40:13;;;;;;;;;;;;;;;;;;7400579;19;19933;-59
2023/07/04 12:42:39;;;;;;;;;;;;;;;;;;7426456;19;19914;-58
2023/07/04 12:45:15;;;;;;;;;;;;;;;;;;7404661;19;20354;-58
2023/07/04 12:47:41;;;;;;;;;;;;;;;;;;7400236;19;19918;-60
2023/07/04 12:50:08;;;;;;;;;;;;;;;;;;7399765;19;20356;-62
2023/07/04 12:52:35;;;;;;;;;;;;;;;;;;7402363;19;19927;-62
2023/07/04 12:55:01;;;;;;;;;;;;;;;;;;7400747;19;19927;-58
2023/07/04 12:57:27;;;;;;;;;;;;;;;;;;7421694;19;19917;-61
2023/07/04 13:00:05;;;;;;;;;;;;;;;;;;7400912;19;19941;-60
2023/07/04 13:02:32;;;;;;;;;;;;;;;;;;7401858;19;19911;-64
2023/07/04 13:05:01;;;;;;;;;;;;;;;;;;7403638;19;20333;-61
2023/07/04 13:07:26;;;;;;;;;;;;;;;;;;7403305;19;19919;-61
2023/07/04 13:09:54;;;;;;;;;;;;;;;;;;7399109;19;20310;-62
2023/07/04 13:12:23;;;;;;;;;;;;;;;;;;7423534;19;20460;-62
2023/07/04 13:14:48;;;;;;;;;;;;;;;;;;7399662;19;19915;-61
2023/07/04 13:17:18;;;;;;;;;;;;;;;;;;7399969;19;20026;-63
2023/07/04 13:19:43;;;;;;;;;;;;;;;;;;7400724;19;20023;-63
2023/07/04 13:22:14;;;;;;;;;;;;;;;;;;7399810;19;20409;-63
2023/07/04 13:24:40;;;;;;;;;;;;;;;;;;7423218;19;19933;-61
2023/07/04 13:27:10;;;;;;;;;;;;;;;;;;7399273;19;19919;-62
2023/07/04 13:29:36;;;;;;;;;;;;;;;;;;7398818;19;19978;-64
2023/07/04 13:32:01;;;;;;;;;;;;;;;;;;7400218;19;20358;-65
2023/07/04 13:34:28;;;;;;;;;;;;;;;;;;7399264;19;19923;-63
2023/07/04 13:36:54;;;;;;;;;;;;;;;;;;7400778;19;19930;-62
2023/07/04 13:39:20;;;;;;;;;;;;;;;;;;7422319;19;19930;-63
2023/07/04 13:41:47;;;;;;;;;;;;;;;;;;7401003;19;19927;-61
2023/07/04 13:44:12;;;;;;;;;;;;;;;;;;7401243;19;19919;-64
2023/07/04 13:46:38;;;;;;;;;;;;;;;;;;7371826;19;19958;-63
2023/07/04 13:49:04;;;;;;;;;;;;;;;;;;7372655;19;20373;-57
2023/07/04 13:51:29;;;;;;;;;;;;;;;;;;7395781;19;19927;-55
2023/07/04 13:53:55;;;;;;;;;;;;;;;;;;7374066;19;19951;-61
2023/07/04 13:56:20;;;;;;;;;;;;;;;;;;7373781;19;20273;-61
2023/07/04 13:58:45;;;;;;;;;;;;;;;;;;7371850;19;19919;-65
2023/07/04 14:01:11;;;;;;;;;;;;;;;;;;7371832;19;19930;-60
2023/07/04 14:03:36;;;;;;;;;;;;;;;;;;7394299;19;20341;-66
2023/07/04 14:06:02;;;;;;;;;;;;;;;;;;7370917;19;20315;-64
2023/07/04 14:08:29;;;;;;;;;;;;;;;;;;7370288;19;19954;-65
2023/07/04 14:10:58;;;;;;;;;;;;;;;;;;7367839;19;19993;-63
2023/07/04 14:13:23;;;;;;;;;;;;;;;;;;7371718;19;20397;-63
2023/07/04 14:15:55;;;;;;;;;;;;;;;;;;7372080;19;19921;-59
2023/07/04 14:18:20;;;;;;;;;;;;;;;;;;7391310;19;19922;-57
2023/07/04 14:20:46;;;;;;;;;;;;;;;;;;7369570;19;19957;-55
2023/07/04 14:23:11;;;;;;;;;;;;;;;;;;7372829;19;20040;-57
2023/07/04 14:25:36;;;;;;;;;;;;;;;;;;7370881;19;20008;-62
2023/07/04 14:28:02;;;;;;;;;;;;;;;;;;7369483;19;19922;-58
2023/07/04 14:30:27;;;;;;;;;;;;;;;;;;7391655;19;19918;-57
2023/07/04 14:32:52;;;;;;;;;;;;;;;;;;7371285;19;19947;-58
2023/07/04 14:35:17;;;;;;;;;;;;;;;;;;7371571;19;19923;-66
2023/07/04 14:37:42;;;;;;;;;;;;;;;;;;7371357;19;19950;-65
2023/07/04 14:40:08;;;;;;;;;;;;;;;;;;7369248;19;19958;-63
2023/07/04 14:42:33;;;;;;;;;;;;;;;;;;7390413;19;19923;-60
2023/07/04 14:44:58;;;;;;;;;;;;;;;;;;7368945;19;19965;-66
2023/07/04 14:47:24;;;;;;;;;;;;;;;;;;7368340;19;19935;-65
2023/07/04 14:49:49;;;;;;;;;;;;;;;;;;7366425;19;19926;-65
2023/07/04 14:52:14;;;;;;;;;;;;;;;;;;7369920;19;19945;-63
2023/07/04 14:54:39;;;;;;;;;;;;;;;;;;7389177;19;19923;-62
2023/07/04 14:57:05;;;;;;;;;;;;;;;;;;7365618;19;19978;-62
2023/07/04 14:59:31;;;;;;;;;;;;;;;;;;7368236;19;19914;-66
2023/07/04 15:01:57;;;;;;;;;;;;;;;;;;7370355;19;19919;-66
2023/07/04 15:04:22;;;;;;;;;;;;;;;;;;7369138;19;19922;-69
2023/07/04 15:06:47;;;;;;;;;;;;;;;;;;7368580;19;19938;-68
2023/07/04 15:09:13;;;;;;;;;;;;;;;;;;7390496;19;20357;-65
2023/07/04 15:11:38;;;;;;;;;;;;;;;;;;7366285;19;20335;-59
2023/07/04 15:14:03;;;;;;;;;;;;;;;;;;7372828;19;19919;-72
2023/07/04 15:16:28;;;;;;;;;;;;;;;;;;7372717;19;19930;-71
2023/07/04 15:18:54;;;;;;;;;;;;;;;;;;7371441;19;19929;-71
2023/07/04 15:21:19;;;;;;;;;;;;;;;;;;7386025;19;19914;-72